Time;durP1;ratioP1;P1;durP2;ratioP2;P2;SDS_P1;SDS_P2;PMS_P1;PMS_P2;Temp;Humidity;BMP_temperature;BMP_pressure;BME280_temperature;BME280_humidity;BME280_pressure;Samples;Min_cycle;Max_cycle;Signal;HPM_P1;HPM_P2
2021/09/19 00:02:16;;;;;;;4.18;2.10;;;19.70;65.90;;;;;;5012851;28;20022;-60
2021/09/19 00:04:42;;;;;;;4.63;2.22;;;19.70;65.80;;;;;;5012913;28;20036;-61
2021/09/19 00:07:07;;;;;;;4.80;2.15;;;19.70;65.80;;;;;;5013038;28;20462;-60
2021/09/19 00:09:33;;;;;;;4.55;2.33;;;19.70;65.90;;;;;;5013083;28;20030;-60
2021/09/19 00:11:58;;;;;;;4.38;2.20;;;19.70;65.90;;;;;;5013070;28;20033;-61
2021/09/19 00:14:24;;;;;;;4.32;2.45;;;19.70;65.90;;;;;;5012800;28;20026;-61
2021/09/19 00:16:50;;;;;;;5.25;2.17;;;19.70;65.80;;;;;;5012742;28;20026;-57
2021/09/19 00:19:16;;;;;;;4.30;2.20;;;19.70;65.90;;;;;;5011459;28;20069;-60
2021/09/19 00:21:43;;;;;;;3.80;2.22;;;19.70;65.90;;;;;;5012585;28;20369;-61
2021/09/19 00:24:09;;;;;;;4.15;2.40;;;19.70;65.90;;;;;;5012665;28;20030;-60
2021/09/19 00:26:34;;;;;;;4.40;2.10;;;19.70;65.90;;;;;;5012617;28;20017;-61
2021/09/19 00:29:00;;;;;;;4.53;2.30;;;19.60;66.00;;;;;;5011399;28;20029;-61
2021/09/19 00:31:25;;;;;;;4.22;2.10;;;19.60;65.90;;;;;;5011366;28;20572;-60
2021/09/19 00:33:51;;;;;;;4.70;2.30;;;19.60;65.90;;;;;;5012523;28;20021;-61
2021/09/19 00:36:16;;;;;;;3.88;2.20;;;19.60;66.00;;;;;;5012976;28;20156;-60
2021/09/19 00:38:42;;;;;;;4.32;2.13;;;19.60;65.90;;;;;;5012337;28;20065;-60
2021/09/19 00:41:07;;;;;;;4.30;2.25;;;19.60;66.00;;;;;;5012443;28;20026;-61
2021/09/19 00:43:33;;;;;;;5.13;2.00;;;19.60;66.00;;;;;;5012592;28;20336;-60
2021/09/19 00:45:58;;;;;;;4.43;2.10;;;19.60;66.00;;;;;;5012482;28;20532;-60
2021/09/19 00:48:24;;;;;;;4.20;2.13;;;19.50;66.00;;;;;;5012361;28;20053;-60
2021/09/19 00:50:50;;;;;;;4.95;2.30;;;19.60;66.00;;;;;;5013961;28;20084;-60
2021/09/19 00:53:16;;;;;;;4.50;2.30;;;19.60;66.00;;;;;;5014619;28;20060;-61
2021/09/19 00:55:43;;;;;;;3.63;1.92;;;19.60;66.00;;;;;;5016008;28;20021;-60
2021/09/19 00:58:11;;;;;;;4.28;2.10;;;19.60;66.00;;;;;;5015746;28;20446;-60
2021/09/19 01:00:38;;;;;;;4.30;2.05;;;19.60;65.90;;;;;;5014483;28;20026;-60
2021/09/19 01:03:04;;;;;;;3.55;2.00;;;19.50;66.00;;;;;;5015658;28;20069;-60
2021/09/19 01:05:30;;;;;;;3.72;2.05;;;19.50;66.00;;;;;;5016030;28;20084;-60
2021/09/19 01:07:57;;;;;;;4.35;1.92;;;19.50;66.00;;;;;;5015700;28;20109;-61
2021/09/19 01:10:25;;;;;;;4.90;2.35;;;19.50;66.00;;;;;;5015651;28;20026;-61
2021/09/19 01:12:52;;;;;;;3.75;2.03;;;19.50;66.10;;;;;;5015560;28;20061;-61
2021/09/19 01:15:19;;;;;;;3.38;2.05;;;19.50;66.10;;;;;;5015585;28;20022;-60
2021/09/19 01:17:45;;;;;;;4.72;2.15;;;19.50;66.10;;;;;;5015311;28;20025;-60
2021/09/19 01:20:13;;;;;;;4.00;2.10;;;19.50;66.10;;;;;;5014106;28;20072;-62
2021/09/19 01:22:42;;;;;;;4.50;2.45;;;19.50;66.10;;;;;;5015454;28;20061;-61
2021/09/19 01:25:10;;;;;;;3.78;1.95;;;19.50;66.10;;;;;;5015426;28;20109;-60
2021/09/19 01:27:36;;;;;;;4.60;2.22;;;19.50;66.10;;;;;;5015231;28;20592;-61
2021/09/19 01:30:04;;;;;;;4.75;2.10;;;19.50;66.10;;;;;;5015297;28;20109;-61
2021/09/19 01:32:29;;;;;;;4.35;2.03;;;19.50;66.10;;;;;;5015094;28;20022;-61
2021/09/19 01:34:55;;;;;;;5.60;2.22;;;19.50;66.10;;;;;;5015210;28;20029;-60
2021/09/19 01:37:20;;;;;;;4.03;2.10;;;19.50;66.10;;;;;;5015157;28;20073;-60
2021/09/19 01:39:46;;;;;;;4.28;2.20;;;19.50;66.10;;;;;;5015104;28;20385;-61
2021/09/19 01:42:13;;;;;;;4.28;2.10;;;19.50;66.10;;;;;;5015025;28;20168;-61
2021/09/19 01:44:40;;;;;;;3.92;1.95;;;19.40;66.10;;;;;;5014948;28;20496;-62
2021/09/19 01:47:06;;;;;;;3.83;1.88;;;19.50;66.20;;;;;;5014567;28;20406;-61
2021/09/19 01:49:31;;;;;;;3.63;1.65;;;19.50;66.20;;;;;;5015027;28;20030;-61
2021/09/19 01:51:58;;;;;;;5.43;1.95;;;19.40;66.20;;;;;;5014868;28;20401;-61
2021/09/19 01:54:24;;;;;;;3.42;1.90;;;19.50;66.20;;;;;;5013829;28;20044;-61
2021/09/19 01:56:49;;;;;;;4.00;2.05;;;19.50;66.20;;;;;;5015046;28;20022;-62
2021/09/19 01:59:15;;;;;;;3.92;2.00;;;19.50;66.20;;;;;;5014887;28;20041;-61
2021/09/19 02:01:40;;;;;;;3.22;1.95;;;19.40;66.20;;;;;;5014666;28;20029;-61
2021/09/19 02:04:06;;;;;;;4.68;2.00;;;19.40;66.20;;;;;;5014623;28;20072;-61
2021/09/19 02:06:31;;;;;;;3.38;1.90;;;19.40;66.20;;;;;;5013410;28;20088;-60
2021/09/19 02:08:57;;;;;;;4.13;1.95;;;19.40;66.30;;;;;;5014551;28;20026;-60
2021/09/19 02:11:22;;;;;;;4.35;2.17;;;19.40;66.30;;;;;;5014472;28;20100;-61
2021/09/19 02:13:50;;;;;;;3.78;1.83;;;19.40;66.30;;;;;;5014821;28;20061;-60
2021/09/19 02:16:20;;;;;;;3.65;2.05;;;19.40;66.30;;;;;;5014347;28;20044;-61
2021/09/19 02:18:47;;;;;;;4.18;1.95;;;19.40;66.30;;;;;;5014598;28;20120;-60
2021/09/19 02:21:13;;;;;;;4.07;1.77;;;19.40;66.30;;;;;;5013186;28;20037;-60
2021/09/19 02:23:39;;;;;;;2.78;1.65;;;19.40;66.30;;;;;;5014301;28;20385;-62
2021/09/19 02:26:06;;;;;;;3.33;1.85;;;19.40;66.30;;;;;;5014262;28;20022;-60
2021/09/19 02:28:31;;;;;;;4.63;1.80;;;19.30;66.30;;;;;;5014153;28;20366;-59
2021/09/19 02:30:57;;;;;;;4.43;2.20;;;19.30;66.40;;;;;;5014164;28;20148;-61
2021/09/19 02:33:24;;;;;;;3.70;2.20;;;19.30;66.30;;;;;;5014133;28;20498;-62
2021/09/19 02:35:49;;;;;;;4.32;1.90;;;19.30;66.40;;;;;;5013988;28;20026;-61
2021/09/19 02:38:15;;;;;;;3.17;1.80;;;19.30;66.40;;;;;;5014009;28;20037;-61
2021/09/19 02:40:40;;;;;;;4.25;2.05;;;19.30;66.40;;;;;;5013947;28;20080;-61
2021/09/19 02:43:06;;;;;;;3.83;2.13;;;19.30;66.40;;;;;;5013881;28;20105;-60
2021/09/19 02:45:32;;;;;;;3.33;1.95;;;19.30;66.40;;;;;;5014018;28;20486;-61
2021/09/19 02:47:57;;;;;;;3.85;2.00;;;19.30;66.30;;;;;;5013659;28;20501;-60
2021/09/19 02:50:25;;;;;;;4.40;1.98;;;19.30;66.40;;;;;;5012746;28;20052;-60
2021/09/19 02:52:51;;;;;;;4.15;2.08;;;19.20;66.40;;;;;;5014018;28;20382;-60
2021/09/19 02:55:18;;;;;;;4.18;2.22;;;19.20;66.40;;;;;;5014336;28;20033;-60
2021/09/19 02:57:44;;;;;;;3.95;2.08;;;19.20;66.40;;;;;;5013939;28;20040;-60
2021/09/19 03:00:16;;;;;;;3.75;1.88;;;19.20;66.40;;;;;;5013843;28;20116;-60
2021/09/19 03:02:42;;;;;;;4.25;1.90;;;19.20;66.50;;;;;;5013629;28;20026;-60
2021/09/19 03:05:09;;;;;;;4.10;2.03;;;19.20;66.50;;;;;;5013689;28;20030;-61
2021/09/19 03:07:34;;;;;;;3.55;1.90;;;19.20;66.40;;;;;;5013586;28;20022;-60
2021/09/19 03:10:00;;;;;;;3.28;1.75;;;19.20;66.50;;;;;;5013736;28;20072;-60
2021/09/19 03:12:25;;;;;;;4.22;1.88;;;19.20;66.50;;;;;;5013159;28;20512;-60
2021/09/19 03:14:51;;;;;;;4.03;2.00;;;19.20;66.50;;;;;;5013188;28;20474;-61
2021/09/19 03:17:17;;;;;;;4.82;2.25;;;19.20;66.50;;;;;;5013359;28;20026;-60
2021/09/19 03:19:42;;;;;;;4.22;2.10;;;19.20;66.50;;;;;;5013502;28;20041;-61
2021/09/19 03:22:08;;;;;;;4.25;1.90;;;19.20;66.50;;;;;;5013295;28;20045;-60
2021/09/19 03:24:33;;;;;;;3.25;1.80;;;19.20;66.60;;;;;;5013321;28;20040;-61
2021/09/19 03:26:59;;;;;;;3.42;1.85;;;19.10;66.50;;;;;;5013208;28;20022;-62
2021/09/19 03:29:25;;;;;;;3.30;1.80;;;19.10;66.50;;;;;;5013194;28;20109;-60
2021/09/19 03:31:51;;;;;;;4.10;1.98;;;19.20;66.50;;;;;;5013215;28;20022;-60
2021/09/19 03:34:16;;;;;;;3.63;1.63;;;19.20;66.50;;;;;;5013183;28;20037;-60
2021/09/19 03:36:42;;;;;;;4.40;2.05;;;19.10;66.60;;;;;;5012293;28;20022;-60
2021/09/19 03:39:08;;;;;;;3.25;1.70;;;19.10;66.60;;;;;;5013061;28;20414;-60
2021/09/19 03:41:33;;;;;;;4.07;2.10;;;19.10;66.60;;;;;;5011801;28;20037;-61
2021/09/19 03:43:59;;;;;;;3.40;1.80;;;19.10;66.60;;;;;;5011779;28;20026;-61
2021/09/19 03:46:28;;;;;;;3.47;1.70;;;19.10;66.50;;;;;;5013350;28;20029;-61
2021/09/19 03:48:54;;;;;;;4.25;2.05;;;19.10;66.70;;;;;;5011678;28;20057;-61
2021/09/19 03:51:19;;;;;;;2.85;1.60;;;19.10;66.60;;;;;;5013294;28;20018;-61
2021/09/19 03:53:45;;;;;;;4.30;1.88;;;19.10;66.50;;;;;;5012972;28;20029;-60
2021/09/19 03:56:11;;;;;;;4.30;1.75;;;19.10;66.60;;;;;;5013189;28;20022;-62
2021/09/19 03:58:37;;;;;;;3.67;1.75;;;19.10;66.60;;;;;;5012849;28;20473;-61
2021/09/19 04:01:02;;;;;;;2.92;1.70;;;19.10;66.60;;;;;;5012954;28;20529;-61
2021/09/19 04:03:28;;;;;;;3.33;1.70;;;19.10;66.60;;;;;;5012915;28;20026;-60
2021/09/19 04:05:54;;;;;;;3.92;1.80;;;19.10;66.60;;;;;;4995320;28;20021;-61
2021/09/19 04:08:19;;;;;;;3.63;1.95;;;19.10;66.60;;;;;;5012853;28;20473;-60
2021/09/19 04:10:45;;;;;;;4.25;2.00;;;19.00;66.60;;;;;;5012842;28;20493;-61
2021/09/19 04:13:10;;;;;;;3.00;1.67;;;19.00;66.60;;;;;;5012735;28;20489;-61
2021/09/19 04:15:36;;;;;;;3.72;1.88;;;19.00;66.70;;;;;;5012819;28;20021;-60
2021/09/19 04:18:01;;;;;;;4.05;2.10;;;19.00;66.70;;;;;;5012743;28;20393;-60
2021/09/19 04:20:27;;;;;;;3.80;1.77;;;19.00;66.70;;;;;;5012701;28;20044;-61
2021/09/19 04:22:53;;;;;;;3.83;1.73;;;19.00;66.70;;;;;;5012709;28;20053;-61
2021/09/19 04:25:18;;;;;;;3.50;1.77;;;19.00;66.70;;;;;;5013531;28;20420;-60
2021/09/19 04:27:44;;;;;;;3.22;1.70;;;19.00;66.70;;;;;;5016500;28;20025;-61
2021/09/19 04:30:10;;;;;;;3.17;1.70;;;19.00;66.70;;;;;;5016476;28;20068;-60
2021/09/19 04:32:37;;;;;;;4.25;1.90;;;19.00;66.70;;;;;;5016238;28;20059;-61
2021/09/19 04:35:03;;;;;;;4.18;1.80;;;19.00;66.70;;;;;;5016375;28;20026;-61
2021/09/19 04:37:28;;;;;;;3.55;1.70;;;19.00;66.70;;;;;;5016472;28;20034;-61
2021/09/19 04:39:54;;;;;;;3.70;1.88;;;19.00;66.80;;;;;;5016186;28;20032;-62
2021/09/19 04:42:22;;;;;;;2.72;1.45;;;19.00;66.80;;;;;;5016215;28;20026;-60
2021/09/19 04:44:48;;;;;;;2.65;1.42;;;19.00;66.70;;;;;;5014968;28;20528;-61
2021/09/19 04:47:14;;;;;;;5.35;1.90;;;18.90;66.70;;;;;;5015964;28;20100;-61
2021/09/19 04:49:40;;;;;;;4.00;1.90;;;18.90;66.70;;;;;;5016062;28;20034;-61
2021/09/19 04:52:06;;;;;;;3.72;1.85;;;18.90;66.80;;;;;;5016060;28;20121;-60
2021/09/19 04:54:32;;;;;;;3.75;1.98;;;18.90;66.70;;;;;;5015988;28;20020;-60
2021/09/19 04:56:58;;;;;;;3.40;1.95;;;18.90;66.70;;;;;;5015807;28;20084;-61
2021/09/19 04:59:24;;;;;;;2.97;1.58;;;18.90;66.80;;;;;;5015876;28;20053;-61
2021/09/19 05:01:50;;;;;;;3.08;1.63;;;18.90;66.80;;;;;;5015826;28;20084;-60
2021/09/19 05:04:15;;;;;;;3.80;1.60;;;18.90;66.70;;;;;;5015933;28;20034;-61
2021/09/19 05:06:41;;;;;;;3.85;1.73;;;18.90;66.80;;;;;;5015785;28;20105;-61
2021/09/19 05:09:06;;;;;;;3.72;1.95;;;18.90;66.70;;;;;;5015603;28;20022;-61
2021/09/19 05:11:32;;;;;;;4.05;1.70;;;18.90;66.70;;;;;;5015678;28;20037;-60
2021/09/19 05:13:57;;;;;;;2.70;1.45;;;18.90;66.70;;;;;;5015690;28;20053;-60
2021/09/19 05:16:23;;;;;;;2.70;1.50;;;18.90;66.70;;;;;;5014335;28;20025;-61
2021/09/19 05:18:48;;;;;;;3.53;1.67;;;18.90;66.70;;;;;;5015482;28;20046;-60
2021/09/19 05:21:14;;;;;;;3.60;1.70;;;18.90;66.70;;;;;;5015465;28;20030;-61
2021/09/19 05:23:39;;;;;;;3.33;1.70;;;18.90;66.70;;;;;;5015428;28;20168;-60
2021/09/19 05:26:05;;;;;;;7.25;1.73;;;18.90;66.70;;;;;;5015454;28;20028;-61
2021/09/19 05:28:30;;;;;;;3.42;1.77;;;18.90;66.70;;;;;;5015435;28;20493;-61
2021/09/19 05:30:56;;;;;;;3.17;1.38;;;18.90;66.70;;;;;;5015634;28;20066;-60
2021/09/19 05:33:22;;;;;;;3.13;1.52;;;18.90;66.70;;;;;;5015299;28;20026;-61
2021/09/19 05:35:47;;;;;;;3.80;1.88;;;18.90;66.70;;;;;;5014807;28;20519;-60
2021/09/19 05:38:13;;;;;;;2.97;1.50;;;18.80;66.70;;;;;;5013787;28;20323;-60
2021/09/19 05:40:41;;;;;;;4.10;1.73;;;18.90;66.70;;;;;;5015037;28;20030;-61
2021/09/19 05:43:06;;;;;;;2.90;1.50;;;18.90;66.70;;;;;;5015409;28;20421;-60
2021/09/19 05:45:32;;;;;;;3.97;1.88;;;18.90;66.70;;;;;;5015081;28;20042;-60
2021/09/19 05:47:58;;;;;;;3.58;1.88;;;18.90;66.70;;;;;;5014801;28;20049;-60
2021/09/19 05:50:25;;;;;;;3.78;1.65;;;18.90;66.60;;;;;;5015014;28;20072;-61
2021/09/19 05:52:50;;;;;;;4.40;2.00;;;18.80;66.70;;;;;;5014862;28;20033;-60
2021/09/19 05:55:16;;;;;;;3.38;1.70;;;18.80;66.70;;;;;;5014959;28;20030;-60
2021/09/19 05:57:42;;;;;;;3.95;1.83;;;18.90;66.70;;;;;;5014749;28;20026;-59
2021/09/19 06:00:09;;;;;;;3.47;1.83;;;18.80;66.60;;;;;;5014661;28;20042;-61
2021/09/19 06:02:34;;;;;;;4.00;1.90;;;18.80;66.60;;;;;;5015041;28;20378;-60
2021/09/19 06:05:00;;;;;;;3.38;1.80;;;18.90;66.60;;;;;;5014634;28;20025;-60
2021/09/19 06:07:25;;;;;;;3.00;1.55;;;18.90;66.60;;;;;;5014546;28;20034;-61
2021/09/19 06:09:51;;;;;;;4.50;1.48;;;18.80;66.60;;;;;;5014589;28;20466;-60
2021/09/19 06:12:17;;;;;;;4.22;1.98;;;18.80;66.60;;;;;;5014430;28;20030;-60
2021/09/19 06:14:43;;;;;;;3.45;1.67;;;18.90;66.60;;;;;;5014485;28;20026;-60
2021/09/19 06:17:08;;;;;;;3.45;1.70;;;18.80;66.60;;;;;;5014262;28;20026;-60
2021/09/19 06:19:35;;;;;;;3.33;1.60;;;18.80;66.60;;;;;;5014318;28;20041;-61
2021/09/19 06:22:01;;;;;;;2.47;1.42;;;18.80;66.60;;;;;;5014525;28;20025;-60
2021/09/19 06:24:28;;;;;;;3.55;1.55;;;18.80;66.60;;;;;;5014525;28;20033;-60
2021/09/19 06:26:55;;;;;;;3.47;1.92;;;18.80;66.60;;;;;;5014554;28;20029;-60
2021/09/19 06:29:20;;;;;;;2.85;1.42;;;18.80;66.60;;;;;;5014139;28;20108;-59
2021/09/19 06:31:46;;;;;;;3.42;1.80;;;18.90;66.60;;;;;;5013945;28;20104;-61
2021/09/19 06:34:12;;;;;;;3.10;1.50;;;18.80;66.50;;;;;;5014425;28;20030;-61
2021/09/19 06:36:37;;;;;;;3.20;1.70;;;18.80;66.50;;;;;;5012810;28;20458;-60
2021/09/19 06:39:03;;;;;;;3.47;1.60;;;18.90;66.50;;;;;;5013953;28;20481;-60
2021/09/19 06:41:28;;;;;;;2.97;1.60;;;18.80;66.50;;;;;;5014001;28;20029;-61
2021/09/19 06:43:54;;;;;;;2.83;1.60;;;18.90;66.50;;;;;;5014184;28;20080;-60
2021/09/19 06:46:20;;;;;;;3.40;1.77;;;18.90;66.40;;;;;;5013879;28;20021;-60
2021/09/19 06:48:45;;;;;;;2.63;1.48;;;18.90;66.40;;;;;;5012951;28;20166;-60
2021/09/19 06:51:11;;;;;;;2.92;1.60;;;18.90;66.40;;;;;;5013834;28;20504;-59
2021/09/19 06:53:37;;;;;;;3.08;1.45;;;18.90;66.30;;;;;;5013837;28;20076;-60
2021/09/19 06:56:04;;;;;;;2.00;1.13;;;18.90;66.30;;;;;;5013761;28;20385;-60
2021/09/19 06:58:30;;;;;;;2.65;1.42;;;18.90;66.30;;;;;;5012514;28;20061;-60
2021/09/19 07:00:56;;;;;;;3.35;1.65;;;18.90;66.30;;;;;;5013732;28;20123;-60
2021/09/19 07:03:22;;;;;;;3.97;1.60;;;18.90;66.30;;;;;;5013663;28;20026;-60
2021/09/19 07:05:48;;;;;;;3.38;1.60;;;18.90;66.30;;;;;;5012364;28;20540;-59
2021/09/19 07:08:13;;;;;;;3.20;1.60;;;18.90;66.20;;;;;;5013539;28;20622;-59
2021/09/19 07:10:39;;;;;;;2.92;1.52;;;18.90;66.20;;;;;;5013569;28;20022;-61
2021/09/19 07:13:04;;;;;;;3.70;1.60;;;18.90;66.20;;;;;;5013423;28;20049;-61
2021/09/19 07:15:30;;;;;;;2.65;1.50;;;18.90;66.20;;;;;;5013520;28;20041;-60
2021/09/19 07:17:55;;;;;;;3.25;1.50;;;19.00;66.20;;;;;;5013312;28;20051;-60
2021/09/19 07:20:21;;;;;;;4.50;1.63;;;18.90;66.10;;;;;;5013286;28;20076;-60
2021/09/19 07:22:46;;;;;;;2.60;1.50;;;18.90;66.10;;;;;;5012067;28;20055;-60
2021/09/19 07:25:13;;;;;;;3.28;1.67;;;19.00;66.00;;;;;;5013339;28;20062;-61
2021/09/19 07:27:40;;;;;;;2.67;1.38;;;19.00;66.00;;;;;;5013260;28;20014;-60
2021/09/19 07:30:06;;;;;;;3.15;1.50;;;19.00;66.00;;;;;;5013335;28;20034;-60
2021/09/19 07:32:32;;;;;;;2.45;1.40;;;19.00;66.00;;;;;;5013480;28;20076;-61
2021/09/19 07:34:58;;;;;;;2.92;1.60;;;19.00;65.90;;;;;;5013327;28;20033;-60
2021/09/19 07:37:24;;;;;;;3.65;1.73;;;19.00;65.90;;;;;;5013202;28;20030;-60
2021/09/19 07:39:50;;;;;;;3.22;1.75;;;19.00;65.90;;;;;;5013051;28;20092;-60
2021/09/19 07:42:16;;;;;;;2.80;1.30;;;19.00;65.90;;;;;;5011947;28;20022;-60
2021/09/19 07:44:42;;;;;;;2.58;1.25;;;19.00;65.90;;;;;;5013121;28;20030;-60
2021/09/19 07:47:08;;;;;;;2.53;1.35;;;19.00;65.80;;;;;;5012963;28;20084;-61
2021/09/19 07:49:39;;;;;;;3.60;1.63;;;19.00;65.80;;;;;;5013070;28;20109;-60
2021/09/19 07:52:06;;;;;;;3.58;1.73;;;19.10;65.80;;;;;;5013043;28;20382;-60
2021/09/19 07:54:32;;;;;;;3.20;1.48;;;19.00;65.70;;;;;;5011761;28;20044;-60
2021/09/19 07:56:58;;;;;;;3.53;1.70;;;19.10;65.70;;;;;;5012898;28;20026;-59
2021/09/19 07:59:24;;;;;;;3.15;1.17;;;19.10;65.70;;;;;;5014038;28;20069;-60
2021/09/19 08:01:50;;;;;;;3.33;1.55;;;19.00;65.60;;;;;;5015714;28;20092;-60
2021/09/19 08:04:15;;;;;;;1.98;1.20;;;19.10;65.60;;;;;;5016876;28;20473;-61
2021/09/19 08:06:41;;;;;;;2.72;1.45;;;19.10;65.50;;;;;;5016907;28;20057;-60
2021/09/19 08:09:06;;;;;;;3.45;1.30;;;19.10;65.50;;;;;;5016783;28;20109;-60
2021/09/19 08:11:32;;;;;;;3.40;1.50;;;19.10;65.50;;;;;;5015797;28;20053;-60
2021/09/19 08:14:05;;;;;;;3.03;1.70;;;19.10;65.50;;;;;;5016711;28;20034;-60
2021/09/19 08:16:32;;;;;;;3.47;1.33;;;19.10;65.40;;;;;;5016910;28;20030;-60
2021/09/19 08:18:58;;;;;;;3.00;1.40;;;19.10;65.40;;;;;;5016576;28;20268;-60
2021/09/19 08:21:23;;;;;;;2.33;1.20;;;19.20;65.30;;;;;;5015434;28;20123;-60
2021/09/19 08:23:49;;;;;;;2.30;1.38;;;19.20;65.30;;;;;;5015276;28;20524;-61
2021/09/19 08:26:14;;;;;;;2.78;1.45;;;19.20;65.30;;;;;;5016350;28;20037;-61
2021/09/19 08:28:40;;;;;;;3.33;1.73;;;19.20;65.20;;;;;;5016455;28;20021;-61
2021/09/19 08:31:05;;;;;;;2.38;1.35;;;19.30;65.20;;;;;;5016312;28;20026;-60
2021/09/19 08:33:31;;;;;;;2.35;1.33;;;19.20;65.20;;;;;;5016291;28;20058;-60
2021/09/19 08:35:57;;;;;;;2.60;1.23;;;19.20;65.10;;;;;;5016479;28;20489;-60
2021/09/19 08:38:23;;;;;;;2.67;1.30;;;19.20;65.10;;;;;;5016248;28;20033;-60
2021/09/19 08:40:50;;;;;;;2.08;1.33;;;19.30;65.00;;;;;;5016174;28;20025;-61
2021/09/19 08:43:17;;;;;;;6.47;1.60;;;19.30;65.00;;;;;;5016143;28;20022;-61
2021/09/19 08:45:47;;;;;;;2.65;1.50;;;19.30;65.00;;;;;;5014736;28;20033;-60
2021/09/19 08:48:17;;;;;;;3.65;1.63;;;19.30;64.90;;;;;;5015871;28;20101;-60
2021/09/19 08:50:44;;;;;;;3.47;1.58;;;19.40;64.90;;;;;;5015988;28;20129;-60
2021/09/19 08:53:11;;;;;;;2.95;1.42;;;19.40;64.80;;;;;;5015992;28;20088;-60
2021/09/19 08:55:36;;;;;;;3.10;1.50;;;19.40;64.80;;;;;;5015880;28;20049;-61
2021/09/19 08:58:02;;;;;;;4.00;1.73;;;19.40;64.90;;;;;;5015962;28;20116;-60
2021/09/19 09:00:38;;;;;;;2.30;1.10;;;19.30;64.90;;;;;;5015754;28;20026;-60
2021/09/19 09:03:10;;;;;;;3.17;1.80;;;19.40;64.90;;;;;;5015748;28;20036;-59
2021/09/19 09:05:37;;;;;;;2.83;1.50;;;19.40;64.80;;;;;;5015697;28;20076;-60
2021/09/19 09:08:03;;;;;;;2.47;1.30;;;19.40;64.80;;;;;;5015690;28;20022;-60
2021/09/19 09:10:40;;;;;;;3.15;1.70;;;19.40;64.80;;;;;;5015105;28;20117;-60
2021/09/19 09:13:07;;;;;;;2.92;1.38;;;19.40;64.70;;;;;;5015410;28;20465;-60
2021/09/19 09:15:37;;;;;;;2.47;1.40;;;19.50;64.80;;;;;;5015493;28;20080;-61
2021/09/19 09:18:04;;;;;;;2.90;1.70;;;19.50;64.70;;;;;;5015352;28;20084;-60
2021/09/19 09:20:53;;;;;;;3.05;1.83;;;19.50;64.70;;;;;;5015308;28;20108;-60
2021/09/19 09:23:31;;;;;;;5.03;1.70;;;19.50;64.70;;;;;;5015324;28;20057;-60
2021/09/19 09:26:21;;;;;;;2.53;1.33;;;19.50;64.70;;;;;;5015292;28;20032;-59
2021/09/19 09:28:56;;;;;;;2.60;1.35;;;19.50;64.60;;;;;;5015307;28;20036;-58
2021/09/19 09:31:43;;;;;;;2.20;1.23;;;19.50;64.80;;;;;;5015230;28;20437;-59
2021/09/19 09:34:19;;;;;;;3.72;1.73;;;19.40;64.70;;;;;;5015191;28;20026;-59
2021/09/19 09:36:55;;;;;;;3.72;1.70;;;19.50;64.60;;;;;;5015123;28;20101;-59
2021/09/19 09:39:36;;;;;;;1.95;1.20;;;19.50;64.60;;;;;;5015098;28;20030;-59
2021/09/19 09:42:06;;;;;;;3.13;1.60;;;19.50;64.70;;;;;;5014972;28;20038;-59
2021/09/19 09:44:41;;;;;;;3.13;1.50;;;19.50;64.70;;;;;;5014979;28;20026;-59
2021/09/19 09:47:13;;;;;;;3.20;1.65;;;19.50;64.70;;;;;;5014823;28;20038;-60
2021/09/19 09:49:43;;;;;;;3.63;1.60;;;19.50;64.60;;;;;;5014698;28;20085;-60
2021/09/19 09:52:12;;;;;;;3.22;1.58;;;19.50;64.60;;;;;;5014737;28;20580;-59
2021/09/19 09:54:42;;;;;;;2.70;1.42;;;19.50;64.50;;;;;;5014666;28;20034;-59
2021/09/19 09:57:09;;;;;;;2.95;1.55;;;19.50;64.60;;;;;;5014754;28;20077;-61
2021/09/19 09:59:35;;;;;;;2.42;1.50;;;19.50;64.50;;;;;;5014622;28;20371;-60
2021/09/19 10:02:03;;;;;;;2.95;1.55;;;19.50;64.60;;;;;;5014671;28;20084;-60
2021/09/19 10:04:29;;;;;;;2.63;1.40;;;19.50;64.60;;;;;;5014596;28;20022;-58
2021/09/19 10:06:54;;;;;;;2.60;1.63;;;19.50;64.60;;;;;;5014396;28;20462;-60
2021/09/19 10:09:21;;;;;;;2.90;1.58;;;19.60;64.60;;;;;;5014551;28;20028;-60
2021/09/19 10:11:47;;;;;;;3.47;1.70;;;19.60;64.50;;;;;;5014442;28;20065;-59
2021/09/19 10:14:13;;;;;;;2.85;1.50;;;19.60;64.40;;;;;;5013035;28;20026;-60
2021/09/19 10:16:39;;;;;;;2.28;1.40;;;19.60;64.40;;;;;;5014395;28;20029;-60
2021/09/19 10:19:04;;;;;;;3.50;1.65;;;19.60;64.40;;;;;;5014091;28;20401;-60
2021/09/19 10:21:31;;;;;;;3.80;1.52;;;19.50;64.50;;;;;;5014042;28;20026;-60
2021/09/19 10:23:58;;;;;;;2.40;1.17;;;19.60;64.50;;;;;;5014090;28;20029;-60
2021/09/19 10:26:24;;;;;;;2.72;1.50;;;19.60;64.50;;;;;;5013998;28;20377;-60
2021/09/19 10:28:53;;;;;;;3.33;1.63;;;19.60;64.50;;;;;;5014033;28;20037;-60
2021/09/19 10:31:32;;;;;;;3.97;1.75;;;19.60;64.50;;;;;;5012812;28;20083;-60
2021/09/19 10:33:59;;;;;;;3.63;1.83;;;19.70;64.50;;;;;;5013954;28;20033;-60
2021/09/19 10:36:45;;;;;;;3.40;1.58;;;19.70;64.40;;;;;;5013973;28;20026;-60
2021/09/19 10:39:35;;;;;;;2.72;1.38;;;19.60;64.40;;;;;;5013764;28;20030;-60
2021/09/19 10:42:14;;;;;;;2.58;1.50;;;19.70;64.40;;;;;;5013733;28;20037;-60
2021/09/19 10:44:45;;;;;;;3.03;1.65;;;19.70;64.40;;;;;;5013976;28;20026;-59
2021/09/19 10:47:38;;;;;;;3.88;1.90;;;19.70;64.30;;;;;;5013635;28;20445;-61
2021/09/19 10:50:14;;;;;;;3.92;1.70;;;19.70;64.30;;;;;;5013782;28;20026;-60
2021/09/19 10:52:44;;;;;;;3.70;1.58;;;19.70;64.30;;;;;;5013705;28;20026;-60
2021/09/19 10:55:28;;;;;;;4.45;1.83;;;19.70;64.30;;;;;;5013915;28;20057;-61
2021/09/19 10:57:59;;;;;;;3.03;1.48;;;19.70;64.30;;;;;;5013895;28;20029;-60
2021/09/19 11:00:30;;;;;;;4.45;1.77;;;19.70;64.40;;;;;;5013742;28;20034;-60
2021/09/19 11:03:03;;;;;;;4.18;1.60;;;19.70;64.30;;;;;;5012291;28;20022;-60
2021/09/19 11:05:34;;;;;;;2.55;1.58;;;19.70;64.30;;;;;;5013744;28;20033;-60
2021/09/19 11:08:06;;;;;;;2.88;1.55;;;19.70;64.20;;;;;;5013557;28;20026;-59
2021/09/19 11:10:32;;;;;;;2.88;1.52;;;19.80;64.30;;;;;;5013418;28;20028;-61
2021/09/19 11:13:17;;;;;;;3.85;1.98;;;19.80;64.30;;;;;;5013375;28;20109;-59
2021/09/19 11:15:42;;;;;;;2.92;1.60;;;19.80;64.30;;;;;;5012099;28;20049;-59
2021/09/19 11:18:23;;;;;;;3.13;1.77;;;19.80;64.20;;;;;;5013310;28;20030;-60
2021/09/19 11:21:18;;;;;;;3.45;1.88;;;19.80;64.20;;;;;;5013458;28;20076;-60
2021/09/19 11:24:00;;;;;;;3.58;1.73;;;19.80;64.10;;;;;;5013241;28;20477;-59
2021/09/19 11:26:30;;;;;;;3.67;1.80;;;19.80;64.10;;;;;;5013330;28;20034;-59
2021/09/19 11:28:58;;;;;;;3.58;1.90;;;19.80;64.10;;;;;;5013292;28;20026;-60
2021/09/19 11:31:25;;;;;;;3.47;1.73;;;19.90;64.00;;;;;;5013256;28;20034;-60
2021/09/19 11:33:50;;;;;;;3.00;1.70;;;19.90;64.00;;;;;;5012736;28;20022;-60
2021/09/19 11:36:18;;;;;;;3.03;1.60;;;19.90;64.00;;;;;;5013024;28;20033;-59
2021/09/19 11:38:50;;;;;;;3.08;1.50;;;19.90;64.00;;;;;;5012960;28;20046;-60
2021/09/19 11:41:17;;;;;;;2.75;1.50;;;19.90;64.00;;;;;;5013225;28;20049;-60
2021/09/19 11:43:44;;;;;;;3.97;1.95;;;19.90;64.00;;;;;;5011609;28;20389;-59
2021/09/19 11:46:15;;;;;;;3.15;1.83;;;19.90;64.00;;;;;;5013139;28;20101;-60
2021/09/19 11:48:41;;;;;;;3.00;1.80;;;19.90;63.90;;;;;;5012780;28;20183;-60
2021/09/19 11:51:10;;;;;;;3.42;1.85;;;19.90;64.00;;;;;;5012832;28;20101;-60
2021/09/19 11:53:35;;;;;;;3.13;1.67;;;19.90;64.00;;;;;;5012682;28;20022;-59
2021/09/19 11:56:03;;;;;;;4.65;1.75;;;19.90;63.90;;;;;;5013389;28;20037;-60
2021/09/19 11:58:29;;;;;;;3.95;1.95;;;20.00;63.90;;;;;;5012679;28;20385;-60
2021/09/19 12:01:00;;;;;;;3.63;1.60;;;20.00;63.90;;;;;;5011439;28;20373;-59
2021/09/19 12:03:27;;;;;;;2.85;1.77;;;20.00;63.90;;;;;;5012694;28;20021;-60
2021/09/19 12:05:55;;;;;;;3.30;1.90;;;20.00;63.90;;;;;;5012680;28;20026;-60
2021/09/19 12:08:22;;;;;;;2.88;1.52;;;20.00;63.90;;;;;;5012721;28;20477;-60
2021/09/19 12:10:49;;;;;;;3.15;1.65;;;20.00;63.90;;;;;;5012957;28;20034;-60
2021/09/19 12:13:19;;;;;;;4.07;1.90;;;20.00;63.80;;;;;;5012637;28;20030;-59
2021/09/19 12:16:15;;;;;;;3.90;1.90;;;20.00;63.80;;;;;;5012520;28;20504;-60
2021/09/19 12:18:43;;;;;;;3.42;1.75;;;20.00;63.90;;;;;;5012518;28;20490;-59
2021/09/19 12:21:15;;;;;;;3.42;1.95;;;20.00;63.90;;;;;;5012389;28;20022;-60
2021/09/19 12:23:56;;;;;;;3.28;1.80;;;20.00;63.90;;;;;;5012499;28;20030;-60
2021/09/19 12:26:25;;;;;;;2.63;1.40;;;20.00;63.90;;;;;;5012477;28;20018;-59
2021/09/19 12:28:57;;;;;;;3.67;1.60;;;20.00;63.80;;;;;;5012528;28;20037;-60
2021/09/19 12:31:46;;;;;;;3.58;1.63;;;20.00;63.80;;;;;;5012685;28;20061;-59
2021/09/19 12:34:20;;;;;;;2.92;1.60;;;20.00;63.80;;;;;;5012633;28;20439;-60
2021/09/19 12:36:54;;;;;;;3.53;1.67;;;20.00;63.70;;;;;;5012486;28;20123;-59
2021/09/19 12:39:31;;;;;;;2.88;1.67;;;20.00;63.70;;;;;;5012368;28;20125;-59
2021/09/19 12:42:05;;;;;;;3.72;1.88;;;20.00;63.70;;;;;;5012222;28;20448;-60
2021/09/19 12:44:34;;;;;;;3.10;1.70;;;20.00;63.70;;;;;;5012422;28;20041;-59
2021/09/19 12:47:01;;;;;;;4.15;1.80;;;20.00;63.70;;;;;;5013942;28;20044;-60
2021/09/19 12:49:29;;;;;;;3.10;1.85;;;20.00;63.70;;;;;;5016408;28;20028;-60
2021/09/19 12:52:10;;;;;;;3.65;1.67;;;20.00;63.60;;;;;;5015865;28;20022;-61